To NAV CANADA Home Page Login to a new session Search on AWWS site Feedback and Comments Disclaimer Vers la page française équivalente Tips FAQ What's new on the site To the Forecasts and Observations / NOTAM section To "File a Flight Plan" website Publications and other links Update of the User's profile FIC Telephone Numbers My Weather Data Folder Route Weather Data Regional Weather Data Local Weather Data To the Forecasts and Observations / NOTAM section
Request Generated 02/23/2017 at 20:46:16 UTC . Weather information available at that time is displayed.

METAR/TAF

STEPHENVILLE/NL    

METAR CYJT 232000Z 18002KT 15SM FEW011 BKN015 BKN090 M00/M02 A2982
RMK CF1SC4AS2 SLP100=
METAR CYJT 231900Z 19002KT 15SM FEW014 SCT015 BKN080 BKN210 M00/M02
A2981 RMK CF1SC3AC1CI1 SLP097=
METAR CYJT 231800Z 27004KT 210V280 15SM BKN014 OVC090 M01/M02 A2980
RMK SC7AS1 SLP095=

TAF CYJT 231740Z 2318/2418 23007KT P6SM BKN020 TEMPO 2318/2323 FEW020
FM232300 VRB03KT P6SM BKN015 OVC070 TEMPO 2323/2404 SCT015 OVC070
FM240400 15012KT 4SM -RA BR SCT008 OVC015
FM240500 20020KT 2SM RA BR OVC008
FM240900 25020KT 1SM -SHRA -DZ BR OVC004
FM241300 27017G30KT 2SM -SHRASN BR OVC008
FM241600 26015KT P6SM -SHSN BKN010
RMK NXT FCST BY 240000Z=
Your time UTC time
Weather data provided by Environment Canada and NAV CANADA